createdAt,value
2023-01-09T00:01:43.264Z,4.07
2023-01-09T00:04:11.683Z,3.95
2023-01-09T00:06:42.662Z,3.84
2023-01-09T00:09:10.902Z,3.72
2023-01-09T00:11:38.892Z,3.64
2023-01-09T00:14:06.762Z,3.55
2023-01-09T00:16:34.704Z,3.45
2023-01-09T00:19:02.769Z,3.35
2023-01-09T00:21:30.759Z,3.23
2023-01-09T00:23:58.610Z,3.15
2023-01-09T00:26:26.532Z,3.16
2023-01-09T00:28:55.136Z,3.17
2023-01-09T00:31:23.154Z,3.18
2023-01-09T00:34:06.222Z,3.10
2023-01-09T00:36:34.300Z,3.04
2023-01-09T00:39:02.307Z,3.03
2023-01-09T00:41:35.951Z,3.01
2023-01-09T00:44:12.395Z,2.96
2023-01-09T00:46:45.330Z,2.89
2023-01-09T00:49:14.629Z,2.85
2023-01-09T00:51:42.984Z,2.84
2023-01-09T00:54:14.738Z,2.84
2023-01-09T00:56:42.946Z,2.84
2023-01-09T00:59:11.351Z,2.82
2023-01-09T01:01:39.282Z,2.84
2023-01-09T01:04:26.224Z,2.87
2023-01-09T01:07:12.906Z,2.85
2023-01-09T01:09:40.870Z,2.77
2023-01-09T01:12:09.110Z,2.72
2023-01-09T01:14:38.395Z,2.67
2023-01-09T01:17:07.708Z,2.60
2023-01-09T01:19:35.912Z,2.56
2023-01-09T01:22:03.999Z,2.58
2023-01-09T01:24:31.925Z,2.61
2023-01-09T01:26:59.810Z,2.63
2023-01-09T01:29:28.035Z,2.64
2023-01-09T01:31:56.391Z,2.68
2023-01-09T01:34:24.724Z,2.68
2023-01-09T01:36:52.655Z,2.64
2023-01-09T01:39:20.597Z,2.61
2023-01-09T01:41:48.374Z,2.53
2023-01-09T01:44:54.033Z,2.55
2023-01-09T01:47:25.098Z,2.55
2023-01-09T01:49:53.141Z,2.53
2023-01-09T01:52:21.438Z,2.49
2023-01-09T01:54:49.853Z,2.47
2023-01-09T01:57:17.784Z,2.48
2023-01-09T01:59:53.740Z,2.49
2023-01-09T02:02:25.627Z,2.47
2023-01-09T02:04:57.275Z,2.49
2023-01-09T02:07:25.484Z,2.49
2023-01-09T02:09:54.256Z,2.44
2023-01-09T02:12:27.087Z,2.35
2023-01-09T02:15:05.372Z,2.31
2023-01-09T02:17:51.709Z,2.31
2023-01-09T02:20:54.936Z,2.33
2023-01-09T02:23:57.403Z,2.30
2023-01-09T02:26:48.343Z,2.19
2023-01-09T02:29:16.352Z,2.09
2023-01-09T02:31:57.879Z,2.01
2023-01-09T02:34:53.599Z,2.02
2023-01-09T02:37:45.747Z,2.04
2023-01-09T02:40:27.559Z,2.00
2023-01-09T02:42:59.188Z,2.00
2023-01-09T02:45:28.809Z,1.99
2023-01-09T02:47:56.729Z,2.02
2023-01-09T02:50:33.256Z,2.01
2023-01-09T02:53:13.068Z,1.95
2023-01-09T02:55:51.021Z,1.87
2023-01-09T02:58:47.045Z,1.80
2023-01-09T03:01:20.661Z,1.80
2023-01-09T03:03:52.710Z,1.81
2023-01-09T03:06:29.623Z,1.81
2023-01-09T03:09:08.010Z,1.80
2023-01-09T03:11:44.280Z,1.79
2023-01-09T03:14:17.822Z,1.76
2023-01-09T03:16:48.444Z,1.76
2023-01-09T03:19:21.121Z,1.79
2023-01-09T03:21:50.278Z,1.77
2023-01-09T03:24:18.291Z,1.72
2023-01-09T03:26:46.244Z,1.62
2023-01-09T03:29:14.385Z,1.54
2023-01-09T03:31:42.241Z,1.42
2023-01-09T03:34:10.351Z,1.32
2023-01-09T03:36:38.430Z,1.29
2023-01-09T03:39:06.467Z,1.29
2023-01-09T03:41:34.469Z,1.30
2023-01-09T03:44:02.405Z,1.34
2023-01-09T03:46:30.246Z,1.45
2023-01-09T03:48:58.968Z,1.50
2023-01-09T03:51:26.777Z,1.49
2023-01-09T03:53:54.802Z,1.49
2023-01-09T03:56:22.842Z,1.52
2023-01-09T03:58:53.000Z,1.59
2023-01-09T04:01:21.089Z,1.62
2023-01-09T04:03:49.117Z,1.65
2023-01-09T04:06:17.062Z,1.64
2023-01-09T04:08:46.467Z,1.62
2023-01-09T04:11:14.465Z,1.62
2023-01-09T04:13:42.366Z,1.63
2023-01-09T04:16:10.761Z,1.61
2023-01-09T04:18:38.840Z,1.62
2023-01-09T04:21:06.649Z,1.62
2023-01-09T04:23:34.602Z,1.60
2023-01-09T04:26:03.326Z,1.61
2023-01-09T04:28:31.252Z,1.62
2023-01-09T04:30:59.651Z,1.61
2023-01-09T04:33:27.449Z,1.54
2023-01-09T04:35:55.408Z,1.47
2023-01-09T04:38:23.282Z,1.37
2023-01-09T04:40:51.236Z,1.25
2023-01-09T04:43:19.247Z,1.13
2023-01-09T04:45:47.262Z,1.08
2023-01-09T04:48:15.143Z,1.09
2023-01-09T04:50:43.136Z,1.11
2023-01-09T04:53:10.976Z,1.16
2023-01-09T04:55:38.949Z,1.21
2023-01-09T04:58:07.369Z,1.27
2023-01-09T05:00:35.287Z,1.27
2023-01-09T05:03:03.237Z,1.30
2023-01-09T05:05:31.187Z,1.33
2023-01-09T05:07:59.168Z,1.35
2023-01-09T05:10:27.091Z,1.36
2023-01-09T05:12:54.981Z,1.32
2023-01-09T05:15:23.030Z,1.29
2023-01-09T05:17:50.806Z,1.20
2023-01-09T05:20:18.771Z,1.15
2023-01-09T05:22:46.659Z,1.14
2023-01-09T05:25:14.589Z,1.13
2023-01-09T05:27:46.334Z,1.15
2023-01-09T05:30:17.914Z,1.16
2023-01-09T05:32:46.421Z,1.14
2023-01-09T05:35:14.421Z,1.11
2023-01-09T05:37:42.466Z,1.06
2023-01-09T05:40:11.448Z,1.04
2023-01-09T05:42:39.686Z,1.04
2023-01-09T05:45:08.411Z,1.05
2023-01-09T05:47:36.526Z,1.04
2023-01-09T05:50:05.029Z,1.03
2023-01-09T05:52:33.089Z,1.00
2023-01-09T05:55:00.966Z,0.96
2023-01-09T05:57:28.982Z,0.85
2023-01-09T05:59:57.031Z,0.72
2023-01-09T06:02:25.112Z,0.70
2023-01-09T06:04:53.446Z,0.60
2023-01-09T06:07:23.418Z,0.60
2023-01-09T06:09:51.445Z,0.52
2023-01-09T06:12:19.483Z,0.40
2023-01-09T06:14:47.551Z,0.39
2023-01-09T06:17:15.569Z,0.41
2023-01-09T06:19:43.463Z,0.42
2023-01-09T06:22:11.329Z,0.37
2023-01-09T06:24:39.405Z,0.34
2023-01-09T06:27:07.249Z,0.35
2023-01-09T06:29:35.026Z,0.35
2023-01-09T06:32:02.978Z,0.38
2023-01-09T06:34:30.968Z,0.37
2023-01-09T06:36:58.980Z,0.38
2023-01-09T06:39:26.947Z,0.41
2023-01-09T06:41:54.746Z,0.50
2023-01-09T06:44:22.539Z,0.59
2023-01-09T06:46:50.561Z,0.69
2023-01-09T06:49:23.402Z,0.73
2023-01-09T06:51:52.158Z,0.75
2023-01-09T06:54:21.073Z,0.77
2023-01-09T06:56:49.080Z,0.73
2023-01-09T06:59:17.072Z,0.74
2023-01-09T07:01:45.006Z,0.67
2023-01-09T07:04:13.251Z,0.68
2023-01-09T07:06:41.124Z,0.63
2023-01-09T07:09:13.385Z,0.65
2023-01-09T07:11:41.697Z,0.69
2023-01-09T07:14:09.853Z,0.70
2023-01-09T07:16:37.789Z,0.72
2023-01-09T07:19:05.931Z,0.79
2023-01-09T07:21:33.887Z,0.87
2023-01-09T07:24:01.923Z,0.97
2023-01-09T07:26:29.911Z,1.11
2023-01-09T07:28:57.902Z,1.19
2023-01-09T07:31:25.874Z,1.32
2023-01-09T07:33:53.834Z,1.40
2023-01-09T07:36:21.906Z,1.52
2023-01-09T07:38:49.980Z,1.53
2023-01-09T07:41:18.023Z,1.55
2023-01-09T07:43:46.118Z,1.60
2023-01-09T07:46:14.028Z,1.59
2023-01-09T07:48:42.110Z,1.69
2023-01-09T07:51:10.612Z,1.75
2023-01-09T07:53:38.538Z,1.78
2023-01-09T07:56:06.873Z,1.82
2023-01-09T07:58:34.802Z,1.89
2023-01-09T08:01:02.881Z,1.96
2023-01-09T08:03:31.052Z,2.01
2023-01-09T08:05:59.719Z,2.05
2023-01-09T08:08:27.949Z,2.05
2023-01-09T08:10:55.887Z,2.11
2023-01-09T08:13:23.754Z,2.07
2023-01-09T08:15:51.792Z,2.12
2023-01-09T08:18:19.767Z,2.18
2023-01-09T08:20:51.011Z,2.24
2023-01-09T08:23:19.089Z,2.25
2023-01-09T08:25:47.069Z,2.26
2023-01-09T08:28:14.947Z,2.28
2023-01-09T08:30:42.964Z,2.32
2023-01-09T08:33:11.131Z,2.35
2023-01-09T08:35:39.214Z,2.30
2023-01-09T08:38:07.072Z,2.32
2023-01-09T08:40:34.887Z,2.37
2023-01-09T08:43:21.645Z,2.39
2023-01-09T08:46:01.937Z,2.43
2023-01-09T08:48:29.968Z,2.50
2023-01-09T08:50:57.983Z,2.54
2023-01-09T08:53:26.059Z,2.52
2023-01-09T08:55:54.061Z,2.53
2023-01-09T08:58:21.993Z,2.58
2023-01-09T09:00:49.806Z,2.64
2023-01-09T09:03:17.929Z,2.70
2023-01-09T09:05:46.876Z,2.79
2023-01-09T09:08:16.582Z,2.89
2023-01-09T09:10:44.571Z,2.99
2023-01-09T09:13:12.494Z,3.01
2023-01-09T09:15:40.569Z,3.03
2023-01-09T09:18:09.331Z,3.05
2023-01-09T09:20:39.296Z,3.04
2023-01-09T09:23:08.465Z,3.02
2023-01-09T09:25:38.512Z,3.06
2023-01-09T09:28:07.691Z,3.07
2023-01-09T09:30:37.774Z,3.10
2023-01-09T09:33:06.045Z,3.14
2023-01-09T09:35:34.335Z,3.21
2023-01-09T09:38:05.584Z,3.28
2023-01-09T09:41:02.146Z,3.06
2023-01-09T09:44:18.217Z,2.99
2023-01-09T09:46:52.002Z,3.04
2023-01-09T09:49:28.296Z,3.15
2023-01-09T09:52:26.105Z,3.24
2023-01-09T09:54:54.362Z,3.38
2023-01-09T09:57:29.218Z,3.45
2023-01-09T09:59:58.377Z,3.52
2023-01-09T10:02:31.268Z,3.53
2023-01-09T10:05:09.866Z,3.54
2023-01-09T10:07:46.603Z,3.58
2023-01-09T10:10:25.077Z,3.54
2023-01-09T10:12:55.890Z,3.51
2023-01-09T10:15:45.206Z,3.56
2023-01-09T10:18:45.332Z,3.63
2023-01-09T10:21:21.704Z,3.66
2023-01-09T10:24:22.215Z,3.69
2023-01-09T10:26:57.222Z,3.72
2023-01-09T10:29:36.595Z,3.82
2023-01-09T10:32:32.929Z,3.85
2023-01-09T10:35:39.324Z,3.94
2023-01-09T10:38:22.786Z,4.02
2023-01-09T10:40:55.475Z,4.15
2023-01-09T10:43:38.954Z,4.14
2023-01-09T10:46:12.941Z,4.14
2023-01-09T10:48:48.022Z,4.15
2023-01-09T10:51:21.184Z,4.18
2023-01-09T10:53:52.482Z,4.21
2023-01-09T10:56:24.890Z,4.28
2023-01-09T10:58:54.733Z,4.32
2023-01-09T11:01:37.535Z,4.40
2023-01-09T11:04:20.554Z,4.48
2023-01-09T11:06:55.069Z,4.55
2023-01-09T11:09:22.950Z,4.57
2023-01-09T11:11:52.690Z,4.61
2023-01-09T11:14:31.337Z,4.66
2023-01-09T11:17:04.079Z,4.68
2023-01-09T11:19:33.664Z,4.64
2023-01-09T11:22:18.308Z,4.65
2023-01-09T11:25:00.410Z,4.66
2023-01-09T11:27:28.529Z,4.70
2023-01-09T11:30:13.162Z,4.70
2023-01-09T11:32:42.460Z,4.71
2023-01-09T11:35:24.095Z,4.73
2023-01-09T11:38:04.533Z,4.74
2023-01-09T11:40:45.606Z,4.77
2023-01-09T11:43:39.002Z,4.79
2023-01-09T11:46:29.411Z,4.81
2023-01-09T11:48:58.987Z,4.88
2023-01-09T11:51:30.073Z,4.92
2023-01-09T11:54:16.503Z,4.97
2023-01-09T11:56:46.284Z,5.04
2023-01-09T11:59:18.408Z,5.00
2023-01-09T12:01:46.356Z,4.97
2023-01-09T12:04:31.247Z,4.89
2023-01-09T12:07:14.243Z,5.01
2023-01-09T12:10:10.235Z,5.05
2023-01-09T12:12:57.100Z,5.13
2023-01-09T12:16:02.915Z,5.10
2023-01-09T12:18:45.391Z,5.23
2023-01-09T12:21:36.209Z,5.28
2023-01-09T12:24:40.785Z,5.34
2023-01-09T12:27:11.720Z,5.35
2023-01-09T12:30:21.169Z,5.41
2023-01-09T12:32:58.040Z,5.47
2023-01-09T12:35:49.015Z,5.56
2023-01-09T12:38:22.981Z,5.58
2023-01-09T12:40:59.651Z,5.52
2023-01-09T12:43:51.420Z,5.53
2023-01-09T12:46:21.335Z,5.51
2023-01-09T12:48:52.052Z,5.51
2023-01-09T12:51:28.437Z,5.48
2023-01-09T12:54:30.490Z,5.46
2023-01-09T12:57:04.142Z,5.48
2023-01-09T12:59:43.809Z,5.43
2023-01-09T13:02:32.552Z,5.35
2023-01-09T13:05:09.782Z,5.35
2023-01-09T13:08:02.267Z,5.35
2023-01-09T13:10:39.468Z,5.41
2023-01-09T13:13:20.336Z,5.42
2023-01-09T13:15:53.594Z,5.53
2023-01-09T13:18:43.017Z,5.53
2023-01-09T13:21:13.799Z,5.48
2023-01-09T13:24:04.052Z,5.46
2023-01-09T13:26:42.702Z,5.47
2023-01-09T13:29:22.010Z,5.46
2023-01-09T13:32:11.732Z,5.47
2023-01-09T13:34:40.441Z,5.52
2023-01-09T13:37:26.611Z,5.53
2023-01-09T13:40:00.985Z,5.51
2023-01-09T13:42:48.124Z,5.47
2023-01-09T13:45:25.593Z,5.47
2023-01-09T13:48:09.891Z,5.47
2023-01-09T13:50:39.555Z,5.50
2023-01-09T13:53:20.161Z,5.53
2023-01-09T13:56:07.012Z,5.57
2023-01-09T13:58:38.261Z,5.58
2023-01-09T14:01:24.535Z,5.60
2023-01-09T14:04:21.813Z,5.60
2023-01-09T14:07:29.034Z,5.58
2023-01-09T14:10:00.946Z,5.54
2023-01-09T14:12:32.577Z,5.51
2023-01-09T14:15:04.788Z,5.53
2023-01-09T14:17:37.821Z,5.51
2023-01-09T14:20:09.220Z,5.49
2023-01-09T14:22:46.157Z,5.44
2023-01-09T14:25:26.825Z,5.42
2023-01-09T14:27:54.713Z,5.41
2023-01-09T14:30:25.544Z,5.43
2023-01-09T14:32:57.918Z,5.45
2023-01-09T14:35:41.913Z,5.48
2023-01-09T14:38:28.008Z,5.48
2023-01-09T14:41:00.804Z,5.45
2023-01-09T14:43:40.194Z,5.44
2023-01-09T14:46:16.437Z,5.43
2023-01-09T14:48:55.738Z,5.45
2023-01-09T14:51:26.081Z,5.42
2023-01-09T14:53:56.235Z,5.41
2023-01-09T14:56:30.018Z,5.39
2023-01-09T14:59:24.649Z,5.45
2023-01-09T15:01:57.023Z,5.45
2023-01-09T15:04:35.745Z,5.44
2023-01-09T15:07:05.244Z,5.44
2023-01-09T15:09:33.356Z,5.43
2023-01-09T15:12:08.716Z,5.43
2023-01-09T15:14:43.553Z,5.42
2023-01-09T15:17:24.877Z,5.42
2023-01-09T15:19:53.946Z,5.43
2023-01-09T15:22:23.765Z,5.42
2023-01-09T15:24:51.790Z,5.42
2023-01-09T15:27:22.180Z,5.44
2023-01-09T15:29:51.899Z,5.43
2023-01-09T15:32:29.144Z,5.43
2023-01-09T15:34:57.998Z,5.41
2023-01-09T15:37:34.942Z,5.39
2023-01-09T15:40:07.461Z,5.36
2023-01-09T15:42:58.171Z,5.37
2023-01-09T15:45:35.360Z,5.36
2023-01-09T15:48:30.795Z,5.38
2023-01-09T15:51:10.859Z,5.39
2023-01-09T15:53:41.881Z,5.38
2023-01-09T15:56:13.032Z,5.35
2023-01-09T15:58:49.454Z,5.31
2023-01-09T16:01:33.917Z,5.27
2023-01-09T16:04:17.183Z,5.23
2023-01-09T16:06:48.230Z,5.22
2023-01-09T16:09:30.429Z,5.20
2023-01-09T16:12:01.652Z,5.17
2023-01-09T16:14:41.937Z,5.16
2023-01-09T16:17:16.274Z,5.21
2023-01-09T16:19:48.739Z,5.23
2023-01-09T16:22:51.111Z,5.25
2023-01-09T16:25:31.148Z,5.22
2023-01-09T16:28:28.373Z,5.26
2023-01-09T16:31:10.055Z,5.28
2023-01-09T16:33:45.375Z,5.22
2023-01-09T16:36:14.083Z,5.25
2023-01-09T16:38:43.002Z,5.29
2023-01-09T16:41:34.608Z,5.35
2023-01-09T16:44:06.639Z,5.35
2023-01-09T16:46:38.236Z,5.38
2023-01-09T16:49:27.432Z,5.36
2023-01-09T16:51:57.194Z,5.38
2023-01-09T16:54:25.045Z,5.39
2023-01-09T16:56:54.522Z,5.43
2023-01-09T16:59:27.216Z,5.45
2023-01-09T17:01:55.832Z,5.48
2023-01-09T17:04:24.151Z,5.51
2023-01-09T17:06:52.201Z,5.53
2023-01-09T17:09:24.147Z,5.54
2023-01-09T17:11:53.987Z,5.55
2023-01-09T17:14:21.873Z,5.51
2023-01-09T17:16:49.942Z,5.48
2023-01-09T17:19:20.400Z,5.46
2023-01-09T17:21:48.856Z,5.46
2023-01-09T17:24:35.621Z,5.42
2023-01-09T17:27:22.186Z,5.41
2023-01-09T17:29:50.414Z,5.37
2023-01-09T17:32:18.780Z,5.33
2023-01-09T17:34:46.857Z,5.23
2023-01-09T17:37:16.834Z,5.16
2023-01-09T17:39:45.614Z,5.12
2023-01-09T17:42:14.018Z,5.05
2023-01-09T17:44:41.973Z,4.99
2023-01-09T17:47:16.033Z,4.92
2023-01-09T17:49:44.112Z,4.88
2023-01-09T17:52:12.147Z,4.86
2023-01-09T17:54:40.897Z,4.83
2023-01-09T17:57:15.754Z,4.79
2023-01-09T17:59:45.097Z,4.75
2023-01-09T18:02:19.204Z,4.70
2023-01-09T18:04:47.230Z,4.66
2023-01-09T18:07:16.889Z,4.63
2023-01-09T18:09:45.502Z,4.59
2023-01-09T18:12:14.071Z,4.55
2023-01-09T18:14:42.824Z,4.50
2023-01-09T18:17:13.237Z,4.48
2023-01-09T18:19:41.305Z,4.45
2023-01-09T18:22:09.285Z,4.43
2023-01-09T18:24:37.513Z,4.38
2023-01-09T18:27:05.507Z,4.33
2023-01-09T18:29:33.453Z,4.35
2023-01-09T18:32:01.466Z,4.34
2023-01-09T18:34:29.295Z,4.35
2023-01-09T18:36:57.331Z,4.33
2023-01-09T18:39:26.093Z,4.34
2023-01-09T18:41:54.109Z,4.32
2023-01-09T18:44:22.734Z,4.30
2023-01-09T18:46:50.768Z,4.27
2023-01-09T18:49:18.780Z,4.26
2023-01-09T18:51:46.624Z,4.25
2023-01-09T18:54:14.852Z,4.24
2023-01-09T18:56:43.094Z,4.23
2023-01-09T18:59:12.315Z,4.21
2023-01-09T19:01:40.121Z,4.18
2023-01-09T19:04:08.199Z,4.16
2023-01-09T19:06:36.962Z,4.13
2023-01-09T19:09:06.681Z,4.09
2023-01-09T19:11:34.790Z,4.05
2023-01-09T19:14:02.851Z,4.02
2023-01-09T19:16:30.898Z,3.97
2023-01-09T19:18:59.168Z,3.92
2023-01-09T19:21:27.215Z,3.88
2023-01-09T19:23:55.461Z,3.85
2023-01-09T19:26:26.213Z,3.81
2023-01-09T19:28:57.449Z,3.78
2023-01-09T19:31:28.501Z,3.74
2023-01-09T19:33:58.839Z,3.70
2023-01-09T19:36:27.859Z,3.66
2023-01-09T19:38:57.693Z,3.64
2023-01-09T19:41:26.564Z,3.61
2023-01-09T19:43:54.715Z,3.56
2023-01-09T19:46:24.805Z,3.51
2023-01-09T19:48:53.269Z,3.47
2023-01-09T19:51:22.177Z,3.47
2023-01-09T19:53:53.646Z,3.42
2023-01-09T19:56:23.971Z,3.42
2023-01-09T19:58:54.207Z,3.39
2023-01-09T20:01:26.189Z,3.33
2023-01-09T20:03:56.829Z,3.25
2023-01-09T20:06:26.579Z,3.15
2023-01-09T20:08:56.840Z,3.06
2023-01-09T20:11:26.870Z,2.95
2023-01-09T20:13:55.637Z,2.84
2023-01-09T20:16:30.471Z,2.79
2023-01-09T20:19:03.670Z,2.73
2023-01-09T20:21:31.879Z,2.65
2023-01-09T20:24:01.647Z,2.59
2023-01-09T20:26:30.396Z,2.53
2023-01-09T20:28:58.568Z,2.54
2023-01-09T20:31:30.993Z,2.57
2023-01-09T20:34:02.363Z,2.58
2023-01-09T20:36:31.776Z,2.58
2023-01-09T20:39:02.088Z,2.58
2023-01-09T20:41:31.406Z,2.55
2023-01-09T20:44:09.773Z,2.53
2023-01-09T20:46:40.800Z,2.52
2023-01-09T20:49:12.884Z,2.49
2023-01-09T20:51:43.238Z,2.45
2023-01-09T20:54:11.566Z,2.34
2023-01-09T20:56:39.548Z,2.29
2023-01-09T20:59:12.146Z,2.31
2023-01-09T21:01:40.416Z,2.35
2023-01-09T21:04:09.001Z,2.37
2023-01-09T21:06:38.024Z,2.38
2023-01-09T21:09:05.927Z,2.45
2023-01-09T21:11:33.985Z,2.50
2023-01-09T21:14:02.050Z,2.62
2023-01-09T21:16:30.317Z,2.67
2023-01-09T21:18:58.222Z,2.64
2023-01-09T21:21:27.786Z,2.67
2023-01-09T21:23:58.765Z,2.75
2023-01-09T21:26:29.108Z,2.85
2023-01-09T21:29:00.066Z,2.88
2023-01-09T21:31:34.816Z,2.87
2023-01-09T21:34:05.755Z,2.91
2023-01-09T21:36:35.537Z,2.97
2023-01-09T21:39:08.033Z,3.01
2023-01-09T21:41:55.021Z,3.05
2023-01-09T21:44:41.711Z,3.08
2023-01-09T21:47:09.795Z,3.10
2023-01-09T21:49:42.931Z,3.14
2023-01-09T21:52:13.069Z,3.15
2023-01-09T21:54:41.879Z,3.14
2023-01-09T21:57:10.470Z,3.17
2023-01-09T21:59:38.701Z,3.17
2023-01-09T22:02:07.195Z,3.21
2023-01-09T22:04:35.251Z,3.21
2023-01-09T22:07:03.650Z,3.19
2023-01-09T22:09:31.498Z,3.20
2023-01-09T22:11:59.569Z,3.26
2023-01-09T22:14:27.472Z,3.30
2023-01-09T22:16:55.918Z,3.30
2023-01-09T22:19:23.921Z,3.28
2023-01-09T22:21:51.861Z,3.29
2023-01-09T22:24:21.751Z,3.35
2023-01-09T22:26:50.021Z,3.35
2023-01-09T22:29:18.080Z,3.38
2023-01-09T22:31:45.951Z,3.42
2023-01-09T22:34:15.549Z,3.45
2023-01-09T22:36:45.088Z,3.51
2023-01-09T22:39:17.127Z,3.55
2023-01-09T22:41:45.587Z,3.59
2023-01-09T22:44:13.541Z,3.60
2023-01-09T22:46:41.623Z,3.61
2023-01-09T22:49:12.274Z,3.61
2023-01-09T22:51:40.417Z,3.62
2023-01-09T22:54:08.329Z,3.60
2023-01-09T22:56:36.504Z,3.58
2023-01-09T22:59:04.561Z,3.61
2023-01-09T23:01:32.505Z,3.55
2023-01-09T23:04:13.783Z,3.54
2023-01-09T23:06:59.426Z,3.46
2023-01-09T23:09:27.339Z,3.41
2023-01-09T23:12:05.257Z,3.29
2023-01-09T23:14:36.557Z,3.26
2023-01-09T23:17:06.030Z,3.21
2023-01-09T23:19:35.313Z,3.17
2023-01-09T23:22:05.120Z,3.14
2023-01-09T23:24:33.983Z,3.07
2023-01-09T23:27:02.060Z,3.03
2023-01-09T23:29:30.700Z,3.04
2023-01-09T23:31:58.500Z,3.03
2023-01-09T23:34:27.730Z,2.99
2023-01-09T23:36:57.562Z,2.98
2023-01-09T23:39:26.146Z,2.98
2023-01-09T23:42:12.576Z,3.00
2023-01-09T23:44:40.537Z,3.02
2023-01-09T23:47:08.523Z,3.04
2023-01-09T23:49:36.474Z,3.03
2023-01-09T23:52:06.674Z,3.01
2023-01-09T23:54:35.230Z,3.04
2023-01-09T23:57:03.266Z,3.06
2023-01-09T23:59:31.127Z,3.08
